sensor_id;sensor_type;location;lat;lon;timestamp;P1;durP1;ratioP1;P2;durP2;ratioP2
18875;SDS011;9570;50.854;13.778;2023-04-25T00:01:02;3.60;;;3.30;;
18875;SDS011;9570;50.854;13.778;2023-04-25T00:03:29;5.93;;;3.00;;
18875;SDS011;9570;50.854;13.778;2023-04-25T00:05:56;3.97;;;3.13;;
18875;SDS011;9570;50.854;13.778;2023-04-25T00:08:23;5.00;;;3.00;;
18875;SDS011;9570;50.854;13.778;2023-04-25T00:10:49;5.83;;;3.27;;
18875;SDS011;9570;50.854;13.778;2023-04-25T00:13:15;5.43;;;3.13;;
18875;SDS011;9570;50.854;13.778;2023-04-25T00:15:42;3.60;;;3.30;;
18875;SDS011;9570;50.854;13.778;2023-04-25T00:18:07;3.73;;;3.00;;
18875;SDS011;9570;50.854;13.778;2023-04-25T00:20:33;5.97;;;3.37;;
18875;SDS011;9570;50.854;13.778;2023-04-25T00:23:00;6.40;;;3.60;;
18875;SDS011;9570;50.854;13.778;2023-04-25T00:25:26;5.00;;;3.60;;
18875;SDS011;9570;50.854;13.778;2023-04-25T00:27:51;4.50;;;3.17;;
18875;SDS011;9570;50.854;13.778;2023-04-25T00:30:17;4.73;;;3.57;;
18875;SDS011;9570;50.854;13.778;2023-04-25T00:32:42;5.50;;;3.60;;
18875;SDS011;9570;50.854;13.778;2023-04-25T00:35:08;5.27;;;3.33;;
18875;SDS011;9570;50.854;13.778;2023-04-25T00:37:34;4.70;;;3.93;;
18875;SDS011;9570;50.854;13.778;2023-04-25T00:39:59;5.57;;;3.37;;
18875;SDS011;9570;50.854;13.778;2023-04-25T00:42:25;4.27;;;3.43;;
18875;SDS011;9570;50.854;13.778;2023-04-25T00:44:52;5.77;;;3.70;;
18875;SDS011;9570;50.854;13.778;2023-04-25T00:47:18;6.07;;;3.70;;
18875;SDS011;9570;50.854;13.778;2023-04-25T00:49:43;4.60;;;3.70;;
18875;SDS011;9570;50.854;13.778;2023-04-25T00:52:09;4.30;;;3.60;;
18875;SDS011;9570;50.854;13.778;2023-04-25T00:54:35;7.67;;;3.70;;
18875;SDS011;9570;50.854;13.778;2023-04-25T00:57:02;4.87;;;3.50;;
18875;SDS011;9570;50.854;13.778;2023-04-25T00:59:27;4.87;;;3.80;;
18875;SDS011;9570;50.854;13.778;2023-04-25T01:01:54;6.47;;;3.90;;
18875;SDS011;9570;50.854;13.778;2023-04-25T01:04:20;8.30;;;4.30;;
18875;SDS011;9570;50.854;13.778;2023-04-25T01:06:46;4.73;;;3.80;;
18875;SDS011;9570;50.854;13.778;2023-04-25T01:09:11;4.47;;;3.67;;
18875;SDS011;9570;50.854;13.778;2023-04-25T01:11:37;4.77;;;3.80;;
18875;SDS011;9570;50.854;13.778;2023-04-25T01:14:05;5.87;;;4.07;;
18875;SDS011;9570;50.854;13.778;2023-04-25T01:16:30;5.70;;;4.27;;
18875;SDS011;9570;50.854;13.778;2023-04-25T01:18:58;7.83;;;5.07;;
18875;SDS011;9570;50.854;13.778;2023-04-25T01:21:24;7.77;;;4.13;;
18875;SDS011;9570;50.854;13.778;2023-04-25T01:23:52;6.40;;;4.50;;
18875;SDS011;9570;50.854;13.778;2023-04-25T01:26:19;5.33;;;4.10;;
18875;SDS011;9570;50.854;13.778;2023-04-25T01:28:46;5.17;;;3.83;;
18875;SDS011;9570;50.854;13.778;2023-04-25T01:31:12;5.83;;;4.10;;
18875;SDS011;9570;50.854;13.778;2023-04-25T01:33:38;6.90;;;4.10;;
18875;SDS011;9570;50.854;13.778;2023-04-25T01:36:04;5.60;;;3.90;;
18875;SDS011;9570;50.854;13.778;2023-04-25T01:38:31;4.67;;;4.17;;
18875;SDS011;9570;50.854;13.778;2023-04-25T01:40:56;6.70;;;3.90;;
18875;SDS011;9570;50.854;13.778;2023-04-25T01:43:22;5.67;;;3.80;;
18875;SDS011;9570;50.854;13.778;2023-04-25T01:45:49;5.63;;;4.00;;
18875;SDS011;9570;50.854;13.778;2023-04-25T01:48:15;5.67;;;4.00;;
18875;SDS011;9570;50.854;13.778;2023-04-25T01:50:40;6.93;;;3.80;;
18875;SDS011;9570;50.854;13.778;2023-04-25T01:53:06;5.73;;;4.23;;
18875;SDS011;9570;50.854;13.778;2023-04-25T01:55:34;6.57;;;3.87;;
18875;SDS011;9570;50.854;13.778;2023-04-25T01:58:00;5.90;;;4.00;;
18875;SDS011;9570;50.854;13.778;2023-04-25T02:00:27;7.50;;;4.03;;
18875;SDS011;9570;50.854;13.778;2023-04-25T02:02:53;6.23;;;4.10;;
18875;SDS011;9570;50.854;13.778;2023-04-25T02:05:18;6.50;;;3.57;;
18875;SDS011;9570;50.854;13.778;2023-04-25T02:07:45;6.53;;;4.20;;
18875;SDS011;9570;50.854;13.778;2023-04-25T02:10:10;9.33;;;3.90;;
18875;SDS011;9570;50.854;13.778;2023-04-25T02:12:36;5.57;;;3.97;;
18875;SDS011;9570;50.854;13.778;2023-04-25T02:15:02;5.03;;;3.67;;
18875;SDS011;9570;50.854;13.778;2023-04-25T02:17:27;7.47;;;4.17;;
18875;SDS011;9570;50.854;13.778;2023-04-25T02:19:53;5.93;;;4.10;;
18875;SDS011;9570;50.854;13.778;2023-04-25T02:22:18;6.60;;;3.73;;
18875;SDS011;9570;50.854;13.778;2023-04-25T02:24:44;8.00;;;3.80;;
18875;SDS011;9570;50.854;13.778;2023-04-25T02:27:10;5.73;;;3.80;;
18875;SDS011;9570;50.854;13.778;2023-04-25T02:29:35;6.97;;;4.03;;
18875;SDS011;9570;50.854;13.778;2023-04-25T02:32:01;5.27;;;3.83;;
18875;SDS011;9570;50.854;13.778;2023-04-25T02:34:27;7.47;;;3.87;;
18875;SDS011;9570;50.854;13.778;2023-04-25T02:36:52;7.20;;;4.33;;
18875;SDS011;9570;50.854;13.778;2023-04-25T02:39:17;4.53;;;3.77;;
18875;SDS011;9570;50.854;13.778;2023-04-25T02:41:43;6.97;;;4.23;;
18875;SDS011;9570;50.854;13.778;2023-04-25T02:44:09;6.17;;;3.97;;
18875;SDS011;9570;50.854;13.778;2023-04-25T02:46:34;5.07;;;3.87;;
18875;SDS011;9570;50.854;13.778;2023-04-25T02:49:00;8.43;;;4.17;;
18875;SDS011;9570;50.854;13.778;2023-04-25T02:51:25;7.20;;;3.83;;
18875;SDS011;9570;50.854;13.778;2023-04-25T02:53:51;5.97;;;4.10;;
18875;SDS011;9570;50.854;13.778;2023-04-25T02:56:16;7.80;;;4.20;;
18875;SDS011;9570;50.854;13.778;2023-04-25T02:58:42;8.20;;;4.50;;
18875;SDS011;9570;50.854;13.778;2023-04-25T03:01:07;4.43;;;3.97;;
18875;SDS011;9570;50.854;13.778;2023-04-25T03:03:33;8.87;;;4.50;;
18875;SDS011;9570;50.854;13.778;2023-04-25T03:05:58;6.77;;;4.47;;
18875;SDS011;9570;50.854;13.778;2023-04-25T03:08:23;7.67;;;4.30;;
18875;SDS011;9570;50.854;13.778;2023-04-25T03:10:50;8.43;;;4.57;;
18875;SDS011;9570;50.854;13.778;2023-04-25T03:13:17;5.27;;;4.57;;
18875;SDS011;9570;50.854;13.778;2023-04-25T03:15:43;5.10;;;4.10;;
18875;SDS011;9570;50.854;13.778;2023-04-25T03:18:09;8.27;;;4.53;;
18875;SDS011;9570;50.854;13.778;2023-04-25T03:20:34;6.37;;;4.43;;
18875;SDS011;9570;50.854;13.778;2023-04-25T03:23:00;5.97;;;4.27;;
18875;SDS011;9570;50.854;13.778;2023-04-25T03:25:25;9.37;;;4.80;;
18875;SDS011;9570;50.854;13.778;2023-04-25T03:27:51;7.27;;;4.60;;
18875;SDS011;9570;50.854;13.778;2023-04-25T03:30:16;6.00;;;4.30;;
18875;SDS011;9570;50.854;13.778;2023-04-25T03:32:42;6.37;;;4.20;;
18875;SDS011;9570;50.854;13.778;2023-04-25T03:35:07;5.60;;;4.30;;
18875;SDS011;9570;50.854;13.778;2023-04-25T03:37:33;7.00;;;4.50;;
18875;SDS011;9570;50.854;13.778;2023-04-25T03:39:59;5.33;;;4.30;;
18875;SDS011;9570;50.854;13.778;2023-04-25T03:42:24;6.70;;;4.67;;
18875;SDS011;9570;50.854;13.778;2023-04-25T03:44:51;7.17;;;4.70;;
18875;SDS011;9570;50.854;13.778;2023-04-25T03:47:16;8.33;;;4.70;;
18875;SDS011;9570;50.854;13.778;2023-04-25T03:49:42;8.33;;;4.83;;
18875;SDS011;9570;50.854;13.778;2023-04-25T03:52:07;7.57;;;4.60;;
18875;SDS011;9570;50.854;13.778;2023-04-25T03:54:33;7.33;;;4.87;;
18875;SDS011;9570;50.854;13.778;2023-04-25T03:56:58;8.27;;;4.73;;
18875;SDS011;9570;50.854;13.778;2023-04-25T03:59:24;7.23;;;4.40;;
18875;SDS011;9570;50.854;13.778;2023-04-25T04:01:50;6.60;;;5.00;;
18875;SDS011;9570;50.854;13.778;2023-04-25T04:04:17;8.83;;;4.63;;
18875;SDS011;9570;50.854;13.778;2023-04-25T04:06:42;7.93;;;4.67;;
18875;SDS011;9570;50.854;13.778;2023-04-25T04:09:08;4.27;;;3.87;;
18875;SDS011;9570;50.854;13.778;2023-04-25T04:11:35;6.97;;;4.40;;
18875;SDS011;9570;50.854;13.778;2023-04-25T04:14:03;6.43;;;4.47;;
18875;SDS011;9570;50.854;13.778;2023-04-25T04:16:32;10.37;;;5.53;;
18875;SDS011;9570;50.854;13.778;2023-04-25T04:18:57;6.87;;;4.43;;
18875;SDS011;9570;50.854;13.778;2023-04-25T04:21:23;9.93;;;5.13;;
18875;SDS011;9570;50.854;13.778;2023-04-25T04:23:48;5.50;;;4.73;;
18875;SDS011;9570;50.854;13.778;2023-04-25T04:26:14;7.43;;;4.80;;
18875;SDS011;9570;50.854;13.778;2023-04-25T04:28:41;6.50;;;5.03;;
18875;SDS011;9570;50.854;13.778;2023-04-25T04:31:08;7.00;;;4.93;;
18875;SDS011;9570;50.854;13.778;2023-04-25T04:33:34;11.17;;;5.00;;
18875;SDS011;9570;50.854;13.778;2023-04-25T04:36:01;8.13;;;4.93;;
18875;SDS011;9570;50.854;13.778;2023-04-25T04:38:27;9.47;;;5.43;;
18875;SDS011;9570;50.854;13.778;2023-04-25T04:40:54;8.47;;;5.67;;
18875;SDS011;9570;50.854;13.778;2023-04-25T04:43:19;9.73;;;5.43;;
18875;SDS011;9570;50.854;13.778;2023-04-25T04:45:45;9.07;;;5.77;;
18875;SDS011;9570;50.854;13.778;2023-04-25T04:48:10;7.33;;;5.23;;
18875;SDS011;9570;50.854;13.778;2023-04-25T04:50:39;6.53;;;5.00;;
18875;SDS011;9570;50.854;13.778;2023-04-25T04:53:05;6.20;;;5.03;;
18875;SDS011;9570;50.854;13.778;2023-04-25T04:55:30;9.67;;;5.20;;
18875;SDS011;9570;50.854;13.778;2023-04-25T04:57:56;7.70;;;5.10;;
18875;SDS011;9570;50.854;13.778;2023-04-25T05:00:21;7.80;;;5.70;;
18875;SDS011;9570;50.854;13.778;2023-04-25T05:02:47;10.73;;;6.00;;
18875;SDS011;9570;50.854;13.778;2023-04-25T05:05:13;7.33;;;5.60;;
18875;SDS011;9570;50.854;13.778;2023-04-25T05:07:38;8.93;;;5.93;;
18875;SDS011;9570;50.854;13.778;2023-04-25T05:10:04;8.80;;;6.20;;
18875;SDS011;9570;50.854;13.778;2023-04-25T05:12:30;8.97;;;5.43;;
18875;SDS011;9570;50.854;13.778;2023-04-25T05:14:55;6.97;;;5.67;;
18875;SDS011;9570;50.854;13.778;2023-04-25T05:17:20;6.57;;;5.27;;
18875;SDS011;9570;50.854;13.778;2023-04-25T05:19:46;9.17;;;5.60;;
18875;SDS011;9570;50.854;13.778;2023-04-25T05:22:11;7.50;;;5.53;;
18875;SDS011;9570;50.854;13.778;2023-04-25T05:24:37;7.50;;;5.67;;
18875;SDS011;9570;50.854;13.778;2023-04-25T05:27:02;7.10;;;5.27;;
18875;SDS011;9570;50.854;13.778;2023-04-25T05:29:28;6.00;;;5.07;;
18875;SDS011;9570;50.854;13.778;2023-04-25T05:31:53;8.43;;;5.60;;
18875;SDS011;9570;50.854;13.778;2023-04-25T05:34:19;7.30;;;5.17;;
18875;SDS011;9570;50.854;13.778;2023-04-25T05:36:45;7.90;;;5.10;;
18875;SDS011;9570;50.854;13.778;2023-04-25T05:39:13;7.63;;;4.97;;
18875;SDS011;9570;50.854;13.778;2023-04-25T05:41:39;6.93;;;5.00;;
18875;SDS011;9570;50.854;13.778;2023-04-25T05:44:05;8.87;;;5.03;;
18875;SDS011;9570;50.854;13.778;2023-04-25T05:46:30;5.73;;;5.07;;
18875;SDS011;9570;50.854;13.778;2023-04-25T05:48:56;7.50;;;5.03;;
18875;SDS011;9570;50.854;13.778;2023-04-25T05:51:21;8.20;;;4.83;;
18875;SDS011;9570;50.854;13.778;2023-04-25T05:53:46;8.57;;;5.03;;
18875;SDS011;9570;50.854;13.778;2023-04-25T05:56:12;6.33;;;4.50;;
18875;SDS011;9570;50.854;13.778;2023-04-25T05:58:38;6.63;;;4.93;;
18875;SDS011;9570;50.854;13.778;2023-04-25T06:01:03;7.80;;;4.20;;
18875;SDS011;9570;50.854;13.778;2023-04-25T06:03:29;7.80;;;4.57;;
18875;SDS011;9570;50.854;13.778;2023-04-25T06:05:55;7.77;;;5.00;;
18875;SDS011;9570;50.854;13.778;2023-04-25T06:08:20;7.17;;;4.63;;
18875;SDS011;9570;50.854;13.778;2023-04-25T06:10:46;9.00;;;4.90;;
18875;SDS011;9570;50.854;13.778;2023-04-25T06:13:11;6.27;;;4.47;;
18875;SDS011;9570;50.854;13.778;2023-04-25T06:15:37;5.60;;;4.20;;
18875;SDS011;9570;50.854;13.778;2023-04-25T06:18:02;6.43;;;4.53;;
18875;SDS011;9570;50.854;13.778;2023-04-25T06:20:28;6.97;;;4.53;;
18875;SDS011;9570;50.854;13.778;2023-04-25T06:22:53;5.57;;;4.40;;
18875;SDS011;9570;50.854;13.778;2023-04-25T06:25:19;6.90;;;4.53;;
18875;SDS011;9570;50.854;13.778;2023-04-25T06:27:45;7.30;;;4.13;;
18875;SDS011;9570;50.854;13.778;2023-04-25T06:30:10;5.73;;;4.23;;
18875;SDS011;9570;50.854;13.778;2023-04-25T06:32:37;6.07;;;4.50;;
18875;SDS011;9570;50.854;13.778;2023-04-25T06:35:02;7.40;;;4.93;;
18875;SDS011;9570;50.854;13.778;2023-04-25T06:37:28;6.40;;;4.37;;
18875;SDS011;9570;50.854;13.778;2023-04-25T06:39:54;8.00;;;4.23;;
18875;SDS011;9570;50.854;13.778;2023-04-25T06:42:19;9.63;;;4.87;;
18875;SDS011;9570;50.854;13.778;2023-04-25T06:44:45;10.80;;;5.50;;
18875;SDS011;9570;50.854;13.778;2023-04-25T06:47:10;5.07;;;4.27;;
18875;SDS011;9570;50.854;13.778;2023-04-25T06:49:36;8.50;;;4.70;;
18875;SDS011;9570;50.854;13.778;2023-04-25T06:52:01;7.37;;;4.57;;
18875;SDS011;9570;50.854;13.778;2023-04-25T06:54:27;5.43;;;4.30;;
18875;SDS011;9570;50.854;13.778;2023-04-25T06:56:54;8.17;;;4.60;;
18875;SDS011;9570;50.854;13.778;2023-04-25T06:59:20;9.20;;;4.67;;
18875;SDS011;9570;50.854;13.778;2023-04-25T07:01:46;7.60;;;4.17;;
18875;SDS011;9570;50.854;13.778;2023-04-25T07:04:12;8.63;;;4.20;;
18875;SDS011;9570;50.854;13.778;2023-04-25T07:06:37;6.13;;;3.70;;
18875;SDS011;9570;50.854;13.778;2023-04-25T07:09:09;6.80;;;3.47;;
18875;SDS011;9570;50.854;13.778;2023-04-25T07:11:37;6.77;;;3.57;;
18875;SDS011;9570;50.854;13.778;2023-04-25T07:14:03;3.97;;;3.57;;
18875;SDS011;9570;50.854;13.778;2023-04-25T07:16:28;5.77;;;4.70;;
18875;SDS011;9570;50.854;13.778;2023-04-25T07:18:54;5.90;;;3.90;;
18875;SDS011;9570;50.854;13.778;2023-04-25T07:21:20;6.37;;;3.90;;
18875;SDS011;9570;50.854;13.778;2023-04-25T07:23:45;6.93;;;3.70;;
18875;SDS011;9570;50.854;13.778;2023-04-25T07:26:11;5.90;;;4.13;;
18875;SDS011;9570;50.854;13.778;2023-04-25T07:28:37;5.17;;;3.70;;
18875;SDS011;9570;50.854;13.778;2023-04-25T07:31:02;6.07;;;3.80;;
18875;SDS011;9570;50.854;13.778;2023-04-25T07:33:28;6.50;;;3.60;;
18875;SDS011;9570;50.854;13.778;2023-04-25T07:35:54;5.37;;;3.50;;
18875;SDS011;9570;50.854;13.778;2023-04-25T07:38:20;6.37;;;3.57;;
18875;SDS011;9570;50.854;13.778;2023-04-25T07:40:47;5.70;;;3.90;;
18875;SDS011;9570;50.854;13.778;2023-04-25T07:43:13;5.80;;;3.60;;
18875;SDS011;9570;50.854;13.778;2023-04-25T07:45:41;5.27;;;3.87;;
18875;SDS011;9570;50.854;13.778;2023-04-25T07:48:10;6.77;;;4.40;;
18875;SDS011;9570;50.854;13.778;2023-04-25T07:50:35;7.13;;;4.90;;
18875;SDS011;9570;50.854;13.778;2023-04-25T07:53:01;5.47;;;3.93;;
18875;SDS011;9570;50.854;13.778;2023-04-25T07:55:26;5.43;;;3.70;;
18875;SDS011;9570;50.854;13.778;2023-04-25T07:57:52;4.90;;;3.17;;
18875;SDS011;9570;50.854;13.778;2023-04-25T08:00:18;3.90;;;3.00;;
18875;SDS011;9570;50.854;13.778;2023-04-25T08:02:44;4.47;;;3.60;;
18875;SDS011;9570;50.854;13.778;2023-04-25T08:05:09;5.47;;;3.83;;
18875;SDS011;9570;50.854;13.778;2023-04-25T08:07:39;5.93;;;3.90;;
18875;SDS011;9570;50.854;13.778;2023-04-25T08:10:05;4.87;;;3.47;;
18875;SDS011;9570;50.854;13.778;2023-04-25T08:12:31;6.50;;;3.83;;
18875;SDS011;9570;50.854;13.778;2023-04-25T08:14:57;4.43;;;3.43;;
18875;SDS011;9570;50.854;13.778;2023-04-25T08:17:22;5.10;;;3.50;;
18875;SDS011;9570;50.854;13.778;2023-04-25T08:19:48;4.67;;;3.13;;
18875;SDS011;9570;50.854;13.778;2023-04-25T08:22:14;4.57;;;3.33;;
18875;SDS011;9570;50.854;13.778;2023-04-25T08:24:40;4.23;;;3.43;;
18875;SDS011;9570;50.854;13.778;2023-04-25T08:27:06;4.43;;;3.50;;
18875;SDS011;9570;50.854;13.778;2023-04-25T08:29:32;3.87;;;3.20;;
18875;SDS011;9570;50.854;13.778;2023-04-25T08:31:58;5.60;;;3.33;;
18875;SDS011;9570;50.854;13.778;2023-04-25T08:34:24;4.27;;;3.40;;
18875;SDS011;9570;50.854;13.778;2023-04-25T08:36:50;5.83;;;3.70;;
18875;SDS011;9570;50.854;13.778;2023-04-25T08:39:16;5.43;;;3.40;;
18875;SDS011;9570;50.854;13.778;2023-04-25T08:41:41;5.23;;;3.50;;
18875;SDS011;9570;50.854;13.778;2023-04-25T08:44:08;14.67;;;9.90;;
18875;SDS011;9570;50.854;13.778;2023-04-25T08:46:35;5.20;;;3.20;;
18875;SDS011;9570;50.854;13.778;2023-04-25T08:49:03;5.63;;;3.30;;
18875;SDS011;9570;50.854;13.778;2023-04-25T08:51:30;3.50;;;3.17;;
18875;SDS011;9570;50.854;13.778;2023-04-25T08:53:57;4.63;;;3.03;;
18875;SDS011;9570;50.854;13.778;2023-04-25T08:56:34;4.17;;;2.97;;
18875;SDS011;9570;50.854;13.778;2023-04-25T08:59:01;6.60;;;3.30;;
18875;SDS011;9570;50.854;13.778;2023-04-25T09:01:27;5.90;;;3.27;;
18875;SDS011;9570;50.854;13.778;2023-04-25T09:03:52;2.73;;;2.40;;
18875;SDS011;9570;50.854;13.778;2023-04-25T09:06:19;4.60;;;2.70;;
18875;SDS011;9570;50.854;13.778;2023-04-25T09:08:44;3.83;;;2.87;;
18875;SDS011;9570;50.854;13.778;2023-04-25T09:11:10;7.70;;;3.23;;
18875;SDS011;9570;50.854;13.778;2023-04-25T09:13:38;3.13;;;2.83;;
18875;SDS011;9570;50.854;13.778;2023-04-25T09:16:03;4.43;;;2.57;;
18875;SDS011;9570;50.854;13.778;2023-04-25T09:18:29;2.60;;;2.13;;
18875;SDS011;9570;50.854;13.778;2023-04-25T09:20:58;5.77;;;3.20;;
18875;SDS011;9570;50.854;13.778;2023-04-25T09:23:30;4.60;;;3.20;;
18875;SDS011;9570;50.854;13.778;2023-04-25T09:26:06;7.20;;;3.20;;
18875;SDS011;9570;50.854;13.778;2023-04-25T09:28:32;4.13;;;2.83;;
18875;SDS011;9570;50.854;13.778;2023-04-25T09:30:57;5.47;;;2.90;;
18875;SDS011;9570;50.854;13.778;2023-04-25T09:33:27;5.37;;;3.40;;
18875;SDS011;9570;50.854;13.778;2023-04-25T09:36:03;4.37;;;3.30;;
18875;SDS011;9570;50.854;13.778;2023-04-25T09:38:44;6.47;;;3.80;;
18875;SDS011;9570;50.854;13.778;2023-04-25T09:41:11;5.50;;;3.57;;
18875;SDS011;9570;50.854;13.778;2023-04-25T09:43:37;5.40;;;3.50;;
18875;SDS011;9570;50.854;13.778;2023-04-25T09:46:07;5.80;;;3.20;;
18875;SDS011;9570;50.854;13.778;2023-04-25T09:48:34;4.47;;;3.03;;
18875;SDS011;9570;50.854;13.778;2023-04-25T09:51:07;5.63;;;3.03;;
18875;SDS011;9570;50.854;13.778;2023-04-25T09:53:39;5.17;;;3.20;;
18875;SDS011;9570;50.854;13.778;2023-04-25T09:56:09;4.63;;;2.90;;
18875;SDS011;9570;50.854;13.778;2023-04-25T09:58:37;7.10;;;3.40;;
18875;SDS011;9570;50.854;13.778;2023-04-25T10:01:05;21.73;;;10.13;;
18875;SDS011;9570;50.854;13.778;2023-04-25T10:03:33;5.10;;;3.23;;
18875;SDS011;9570;50.854;13.778;2023-04-25T10:06:01;6.00;;;3.10;;
18875;SDS011;9570;50.854;13.778;2023-04-25T10:08:35;6.43;;;3.23;;
18875;SDS011;9570;50.854;13.778;2023-04-25T10:11:03;6.77;;;3.70;;
18875;SDS011;9570;50.854;13.778;2023-04-25T10:13:30;5.10;;;3.33;;
18875;SDS011;9570;50.854;13.778;2023-04-25T10:15:57;7.90;;;3.33;;
18875;SDS011;9570;50.854;13.778;2023-04-25T10:18:24;6.53;;;3.33;;
18875;SDS011;9570;50.854;13.778;2023-04-25T10:20:51;4.60;;;3.27;;
18875;SDS011;9570;50.854;13.778;2023-04-25T10:23:18;4.47;;;3.03;;
18875;SDS011;9570;50.854;13.778;2023-04-25T10:25:44;5.10;;;3.30;;
18875;SDS011;9570;50.854;13.778;2023-04-25T10:28:10;3.97;;;3.00;;
18875;SDS011;9570;50.854;13.778;2023-04-25T10:30:36;6.50;;;3.30;;
18875;SDS011;9570;50.854;13.778;2023-04-25T10:33:01;5.87;;;3.40;;
18875;SDS011;9570;50.854;13.778;2023-04-25T10:35:40;4.60;;;3.37;;
18875;SDS011;9570;50.854;13.778;2023-04-25T10:38:10;4.07;;;3.00;;
18875;SDS011;9570;50.854;13.778;2023-04-25T10:40:37;6.00;;;3.47;;
18875;SDS011;9570;50.854;13.778;2023-04-25T10:45:57;8.77;;;3.70;;
18875;SDS011;9570;50.854;13.778;2023-04-25T10:48:28;5.60;;;4.20;;
18875;SDS011;9570;50.854;13.778;2023-04-25T10:51:08;8.33;;;4.23;;
18875;SDS011;9570;50.854;13.778;2023-04-25T10:53:34;5.10;;;4.03;;
18875;SDS011;9570;50.854;13.778;2023-04-25T10:56:00;6.93;;;4.40;;
18875;SDS011;9570;50.854;13.778;2023-04-25T10:58:33;5.03;;;4.10;;
18875;SDS011;9570;50.854;13.778;2023-04-25T11:00:59;7.73;;;4.43;;
18875;SDS011;9570;50.854;13.778;2023-04-25T11:03:26;5.50;;;4.00;;
18875;SDS011;9570;50.854;13.778;2023-04-25T11:05:51;7.60;;;4.03;;
18875;SDS011;9570;50.854;13.778;2023-04-25T11:08:20;7.37;;;3.87;;
18875;SDS011;9570;50.854;13.778;2023-04-25T11:10:58;4.20;;;3.80;;
18875;SDS011;9570;50.854;13.778;2023-04-25T11:13:28;4.90;;;3.60;;
18875;SDS011;9570;50.854;13.778;2023-04-25T11:15:55;4.13;;;3.57;;
18875;SDS011;9570;50.854;13.778;2023-04-25T11:18:20;6.37;;;3.70;;
18875;SDS011;9570;50.854;13.778;2023-04-25T11:20:47;4.10;;;3.47;;
18875;SDS011;9570;50.854;13.778;2023-04-25T11:23:15;4.17;;;3.20;;
18875;SDS011;9570;50.854;13.778;2023-04-25T11:25:41;4.53;;;3.57;;
18875;SDS011;9570;50.854;13.778;2023-04-25T11:28:07;4.50;;;3.33;;
18875;SDS011;9570;50.854;13.778;2023-04-25T11:30:33;4.77;;;3.50;;
18875;SDS011;9570;50.854;13.778;2023-04-25T11:32:58;4.20;;;3.80;;
18875;SDS011;9570;50.854;13.778;2023-04-25T11:35:24;7.50;;;4.03;;
18875;SDS011;9570;50.854;13.778;2023-04-25T11:37:50;5.07;;;4.00;;
18875;SDS011;9570;50.854;13.778;2023-04-25T11:40:16;6.60;;;4.70;;
18875;SDS011;9570;50.854;13.778;2023-04-25T11:42:46;4.90;;;4.40;;
18875;SDS011;9570;50.854;13.778;2023-04-25T11:45:12;8.50;;;5.20;;
18875;SDS011;9570;50.854;13.778;2023-04-25T11:47:39;10.20;;;5.40;;
18875;SDS011;9570;50.854;13.778;2023-04-25T11:50:05;8.30;;;5.77;;
18875;SDS011;9570;50.854;13.778;2023-04-25T11:52:42;8.90;;;6.27;;
18875;SDS011;9570;50.854;13.778;2023-04-25T11:55:17;9.97;;;6.60;;
18875;SDS011;9570;50.854;13.778;2023-04-25T11:57:44;11.80;;;6.60;;
18875;SDS011;9570;50.854;13.778;2023-04-25T12:00:16;11.63;;;6.40;;
18875;SDS011;9570;50.854;13.778;2023-04-25T12:02:43;9.77;;;7.33;;
18875;SDS011;9570;50.854;13.778;2023-04-25T12:05:11;10.10;;;6.87;;
18875;SDS011;9570;50.854;13.778;2023-04-25T12:07:38;9.20;;;6.47;;
18875;SDS011;9570;50.854;13.778;2023-04-25T12:10:04;9.83;;;6.33;;
18875;SDS011;9570;50.854;13.778;2023-04-25T12:12:34;8.80;;;4.90;;
18875;SDS011;9570;50.854;13.778;2023-04-25T12:17:40;8.73;;;4.93;;
18875;SDS011;9570;50.854;13.778;2023-04-25T12:20:10;10.37;;;4.43;;
18875;SDS011;9570;50.854;13.778;2023-04-25T12:22:44;8.53;;;4.30;;
18875;SDS011;9570;50.854;13.778;2023-04-25T12:25:12;6.03;;;4.40;;
18875;SDS011;9570;50.854;13.778;2023-04-25T12:28:08;7.90;;;4.10;;
18875;SDS011;9570;50.854;13.778;2023-04-25T12:33:33;5.60;;;3.27;;
18875;SDS011;9570;50.854;13.778;2023-04-25T12:36:00;6.87;;;3.20;;
18875;SDS011;9570;50.854;13.778;2023-04-25T12:38:35;5.60;;;3.20;;
18875;SDS011;9570;50.854;13.778;2023-04-25T12:41:01;5.83;;;3.07;;
18875;SDS011;9570;50.854;13.778;2023-04-25T12:43:27;6.10;;;3.50;;
18875;SDS011;9570;50.854;13.778;2023-04-25T12:45:53;4.60;;;2.90;;
18875;SDS011;9570;50.854;13.778;2023-04-25T12:48:20;6.33;;;2.83;;
18875;SDS011;9570;50.854;13.778;2023-04-25T12:50:46;5.87;;;3.00;;
18875;SDS011;9570;50.854;13.778;2023-04-25T12:53:14;6.47;;;2.93;;
18875;SDS011;9570;50.854;13.778;2023-04-25T12:55:43;8.70;;;3.00;;
18875;SDS011;9570;50.854;13.778;2023-04-25T12:58:11;7.20;;;3.07;;
18875;SDS011;9570;50.854;13.778;2023-04-25T13:00:37;4.63;;;2.83;;
18875;SDS011;9570;50.854;13.778;2023-04-25T13:03:03;6.77;;;3.10;;
18875;SDS011;9570;50.854;13.778;2023-04-25T13:05:29;9.13;;;2.73;;
18875;SDS011;9570;50.854;13.778;2023-04-25T13:07:55;10.47;;;2.80;;
18875;SDS011;9570;50.854;13.778;2023-04-25T13:10:20;6.93;;;2.97;;
18875;SDS011;9570;50.854;13.778;2023-04-25T13:12:46;5.80;;;3.33;;
18875;SDS011;9570;50.854;13.778;2023-04-25T13:15:11;9.07;;;3.13;;
18875;SDS011;9570;50.854;13.778;2023-04-25T13:17:37;9.47;;;3.20;;
18875;SDS011;9570;50.854;13.778;2023-04-25T13:20:04;7.60;;;3.63;;
18875;SDS011;9570;50.854;13.778;2023-04-25T13:22:34;10.53;;;3.00;;
18875;SDS011;9570;50.854;13.778;2023-04-25T13:25:04;7.77;;;3.20;;
18875;SDS011;9570;50.854;13.778;2023-04-25T13:27:31;8.63;;;3.40;;
18875;SDS011;9570;50.854;13.778;2023-04-25T13:29:58;5.83;;;3.70;;
18875;SDS011;9570;50.854;13.778;2023-04-25T13:32:25;11.77;;;3.30;;
18875;SDS011;9570;50.854;13.778;2023-04-25T13:34:50;6.93;;;3.40;;
18875;SDS011;9570;50.854;13.778;2023-04-25T13:37:16;5.53;;;3.30;;
18875;SDS011;9570;50.854;13.778;2023-04-25T13:39:42;8.23;;;3.43;;
18875;SDS011;9570;50.854;13.778;2023-04-25T13:42:07;7.23;;;3.20;;
18875;SDS011;9570;50.854;13.778;2023-04-25T13:44:33;10.83;;;3.80;;
18875;SDS011;9570;50.854;13.778;2023-04-25T13:46:58;8.20;;;3.70;;
18875;SDS011;9570;50.854;13.778;2023-04-25T13:49:25;9.77;;;4.00;;
18875;SDS011;9570;50.854;13.778;2023-04-25T13:51:51;14.27;;;4.03;;
18875;SDS011;9570;50.854;13.778;2023-04-25T13:54:16;7.23;;;3.53;;
18875;SDS011;9570;50.854;13.778;2023-04-25T13:56:42;10.60;;;3.53;;
18875;SDS011;9570;50.854;13.778;2023-04-25T13:59:07;7.03;;;3.37;;
18875;SDS011;9570;50.854;13.778;2023-04-25T14:01:33;10.40;;;3.30;;
18875;SDS011;9570;50.854;13.778;2023-04-25T14:04:00;7.73;;;3.63;;
18875;SDS011;9570;50.854;13.778;2023-04-25T14:06:26;8.93;;;3.53;;
18875;SDS011;9570;50.854;13.778;2023-04-25T14:08:52;8.60;;;3.97;;
18875;SDS011;9570;50.854;13.778;2023-04-25T14:11:18;9.87;;;3.57;;
18875;SDS011;9570;50.854;13.778;2023-04-25T14:13:44;8.23;;;3.90;;
18875;SDS011;9570;50.854;13.778;2023-04-25T14:16:10;8.70;;;3.73;;
18875;SDS011;9570;50.854;13.778;2023-04-25T14:18:35;6.50;;;3.50;;
18875;SDS011;9570;50.854;13.778;2023-04-25T14:21:01;8.47;;;3.90;;
18875;SDS011;9570;50.854;13.778;2023-04-25T14:23:26;11.77;;;4.23;;
18875;SDS011;9570;50.854;13.778;2023-04-25T14:25:52;11.00;;;4.20;;
18875;SDS011;9570;50.854;13.778;2023-04-25T14:28:17;17.63;;;6.00;;
18875;SDS011;9570;50.854;13.778;2023-04-25T14:30:43;9.17;;;4.60;;
18875;SDS011;9570;50.854;13.778;2023-04-25T14:33:09;14.60;;;5.00;;
18875;SDS011;9570;50.854;13.778;2023-04-25T14:35:35;13.37;;;5.10;;
18875;SDS011;9570;50.854;13.778;2023-04-25T14:38:00;9.77;;;4.57;;
18875;SDS011;9570;50.854;13.778;2023-04-25T14:40:25;15.87;;;5.73;;
18875;SDS011;9570;50.854;13.778;2023-04-25T14:42:51;19.17;;;5.77;;
18875;SDS011;9570;50.854;13.778;2023-04-25T14:45:17;14.30;;;4.80;;
18875;SDS011;9570;50.854;13.778;2023-04-25T14:47:42;8.37;;;4.30;;
18875;SDS011;9570;50.854;13.778;2023-04-25T14:50:08;8.80;;;4.80;;